Terminal Aerodrome Forecast
Issued by NWS

Home | Current Version | Previous Version | Graphics & Text | Print | Product List | Glossary On
Versions: 1 2 3 4 5 6 7 8 9 10 11 12 13 14 15
000
FTUS43 KICT 251143
TAFHUT
TAF
KHUT 251143Z 2512/2612 00000KT P6SM SKC
     FM251400 24007KT P6SM BKN200
     FM252000 31013KT P6SM BKN080
     FM252200 35022G30KT P6SM OVC080=

USA.gov is the U.S. government's official web portal to all federal, state and local government web resources and services.